Time;durP1;ratioP1;P1;durP2;ratioP2;P2;SDS_P1;SDS_P2;PMS_P1;PMS_P2;Temp;Humidity;BMP_temperature;BMP_pressure;BME280_temperature;BME280_humidity;BME280_pressure;Samples;Min_cycle;Max_cycle;Signal;HPM_P1;HPM_P2
2023/06/25 00:02:21;;;;;;;18.23;15.00;;;;;;;17.75;100.00;102109.63;5011095;28;20497;-46
2023/06/25 00:04:49;;;;;;;16.20;14.60;;;;;;;17.75;100.00;102111.47;5011315;28;20824;-43
2023/06/25 00:07:17;;;;;;;16.60;14.17;;;;;;;17.73;100.00;102113.56;5011007;28;21021;-45
2023/06/25 00:09:52;;;;;;;22.03;16.40;;;;;;;17.70;100.00;102114.81;5011386;28;20980;-46
2023/06/25 00:12:20;;;;;;;17.50;15.67;;;;;;;17.67;100.00;102113.38;5011553;28;20437;-43
2023/06/25 00:14:48;;;;;;;16.27;14.60;;;;;;;17.65;100.00;102111.94;5015003;28;20468;-43
2023/06/25 00:17:18;;;;;;;19.40;17.27;;;;;;;17.59;100.00;102110.88;5014942;28;20452;-43
2023/06/25 00:19:46;;;;;;;17.90;16.07;;;;;;;17.55;100.00;102106.97;5015132;28;20460;-43
2023/06/25 00:22:14;;;;;;;19.43;17.47;;;;;;;17.50;100.00;102114.78;5015320;28;20476;-46
2023/06/25 00:24:41;;;;;;;20.23;16.53;;;;;;;17.46;100.00;102116.28;5015507;28;20480;-43
2023/06/25 00:27:09;;;;;;;19.23;17.27;;;;;;;17.42;100.00;102114.19;5014700;28;20461;-44
2023/06/25 00:29:37;;;;;;;17.97;16.30;;;;;;;17.41;100.00;102118.75;5015108;28;20515;-44
2023/06/25 00:32:05;;;;;;;19.97;17.83;;;;;;;17.40;100.00;102110.88;5015090;28;20437;-45
2023/06/25 00:34:40;;;;;;;20.33;17.90;;;;;;;17.39;100.00;102106.50;5014957;28;20840;-44
2023/06/25 00:37:16;;;;;;;18.10;16.30;;;;;;;17.38;100.00;102112.97;5014417;28;20811;-44
2023/06/25 00:39:45;;;;;;;19.33;17.10;;;;;;;17.33;100.00;102101.94;5015142;28;20459;-45
2023/06/25 00:42:13;;;;;;;20.47;18.47;;;;;;;17.28;100.00;102102.59;5014755;28;20559;-47
2023/06/25 00:44:42;;;;;;;23.63;20.70;;;;;;;17.24;100.00;102109.41;5014865;28;20516;-47
2023/06/25 00:47:12;;;;;;;22.20;19.47;;;;;;;17.18;100.00;102110.25;5014240;28;20510;-46
2023/06/25 00:49:44;;;;;;;21.07;19.07;;;;;;;17.15;100.00;102098.03;5005778;28;20453;-45
2023/06/25 00:52:14;;;;;;;20.70;18.47;;;;;;;17.13;100.00;102100.09;5014476;28;20432;-45
2023/06/25 00:54:44;;;;;;;21.83;19.73;;;;;;;17.10;100.00;102102.38;5014847;28;20807;-45
2023/06/25 00:57:15;;;;;;;22.27;19.77;;;;;;;17.07;100.00;102106.31;5014067;28;21009;-44
2023/06/25 00:59:44;;;;;;;19.90;18.17;;;;;;;17.02;100.00;102102.59;5014887;28;20457;-48
2023/06/25 01:02:18;;;;;;;20.03;17.97;;;;;;;16.98;100.00;102102.16;5017799;28;20477;-45
2023/06/25 01:04:57;;;;;;;19.73;17.73;;;;;;;16.94;100.00;102108.16;5020283;28;20504;-43
2023/06/25 01:07:26;;;;;;;21.33;19.00;;;;;;;16.94;100.00;102106.28;5014164;28;20490;-43
2023/06/25 01:09:56;;;;;;;21.80;19.63;;;;;;;16.92;100.00;102100.28;5019844;28;20862;-43
2023/06/25 01:12:23;;;;;;;21.00;18.90;;;;;;;16.89;100.00;102108.78;5019082;28;20444;-43
2023/06/25 01:14:51;;;;;;;22.00;19.70;;;;;;;16.85;100.00;102096.75;5020371;28;20441;-45
2023/06/25 01:17:19;;;;;;;23.80;21.30;;;;;;;16.83;100.00;102104.22;5019707;28;20603;-44
2023/06/25 01:19:48;;;;;;;19.87;17.93;;;;;;;16.79;100.00;102102.94;5020490;28;20484;-47
2023/06/25 01:22:17;;;;;;;21.03;18.83;;;;;;;16.79;100.00;102102.09;5019740;28;20507;-43
2023/06/25 01:24:49;;;;;;;21.73;19.40;;;;;;;16.75;100.00;102090.94;5019386;28;20851;-44
2023/06/25 01:27:17;;;;;;;21.37;19.27;;;;;;;16.72;100.00;102098.59;5018569;28;20495;-44
2023/06/25 01:29:45;;;;;;;23.53;21.17;;;;;;;16.71;100.00;102089.69;5020018;28;20507;-44
2023/06/25 01:32:12;;;;;;;24.27;21.23;;;;;;;16.70;100.00;102095.25;5019600;28;20440;-44
2023/06/25 01:34:40;;;;;;;29.47;21.83;;;;;;;16.68;100.00;102087.38;5019873;28;20437;-44
2023/06/25 01:37:08;;;;;;;21.60;19.43;;;;;;;16.70;100.00;102092.56;5018218;28;20563;-47
2023/06/25 01:39:36;;;;;;;21.83;19.73;;;;;;;16.69;100.00;102089.06;5017700;28;20479;-45
2023/06/25 01:42:06;;;;;;;21.10;18.87;;;;;;;16.70;100.00;102090.69;5018267;28;21411;-43
2023/06/25 01:44:34;;;;;;;21.23;19.07;;;;;;;16.68;100.00;102091.94;5020128;28;20483;-43
2023/06/25 01:47:02;;;;;;;20.50;18.60;;;;;;;16.64;100.00;102078.06;5018376;28;20488;-42
2023/06/25 01:49:29;;;;;;;18.90;17.10;;;;;;;16.61;100.00;102075.75;5019727;28;20507;-46
2023/06/25 01:52:00;;;;;;;21.30;18.53;;;;;;;16.55;100.00;102068.50;5005195;28;20437;-44
2023/06/25 01:54:28;;;;;;;24.93;21.73;;;;;;;16.52;100.00;102074.25;5019256;28;20437;-43
2023/06/25 01:56:56;;;;;;;22.43;19.80;;;;;;;16.50;100.00;102070.94;5004549;28;20456;-44
2023/06/25 01:59:26;;;;;;;21.83;19.70;;;;;;;16.48;100.00;102067.63;5011036;28;20547;-47
2023/06/25 02:01:55;;;;;;;21.10;18.90;;;;;;;16.47;100.00;102074.03;5014432;28;20433;-44
2023/06/25 02:04:23;;;;;;;23.50;20.87;;;;;;;16.44;100.00;102067.22;5015902;28;20477;-43
2023/06/25 02:06:51;;;;;;;22.27;19.87;;;;;;;16.44;100.00;102071.75;5016629;28;20467;-46
2023/06/25 02:09:18;;;;;;;24.37;21.70;;;;;;;16.42;100.00;102066.59;5018288;28;20453;-43
2023/06/25 02:11:46;;;;;;;23.20;20.70;;;;;;;16.39;100.00;102075.06;5018591;28;20846;-48
2023/06/25 02:14:14;;;;;;;22.63;20.23;;;;;;;16.36;100.00;102064.72;5018339;28;20460;-47
2023/06/25 02:16:43;;;;;;;25.73;21.50;;;;;;;16.39;100.00;102068.84;5018978;28;20521;-43
2023/06/25 02:19:11;;;;;;;23.63;21.20;;;;;;;16.36;100.00;102066.56;5016691;28;20453;-43
2023/06/25 02:21:39;;;;;;;26.03;22.57;;;;;;;16.33;100.00;102067.81;5017671;28;20433;-44
2023/06/25 02:24:07;;;;;;;25.10;22.60;;;;;;;16.34;100.00;102068.59;5009669;28;20473;-43
2023/06/25 02:26:35;;;;;;;26.23;23.23;;;;;;;16.35;100.00;102062.19;5019486;28;20439;-47
2023/06/25 02:29:03;;;;;;;25.43;22.93;;;;;;;16.33;100.00;102065.13;5017151;28;20499;-45
2023/06/25 02:31:31;;;;;;;26.90;24.10;;;;;;;16.33;100.00;102067.81;5018670;28;20429;-45
2023/06/25 02:34:00;;;;;;;27.70;25.00;;;;;;;16.33;100.00;102056.19;5018582;28;20461;-43
2023/06/25 02:36:28;;;;;;;29.20;26.30;;;;;;;16.35;100.00;102062.19;5019162;28;20495;-43
2023/06/25 02:38:56;;;;;;;27.77;25.07;;;;;;;16.33;100.00;102054.34;5017042;28;20504;-43
2023/06/25 02:41:23;;;;;;;24.40;21.70;;;;;;;16.34;100.00;102061.38;5016753;28;20547;-43
2023/06/25 02:43:51;;;;;;;25.57;22.80;;;;;;;16.33;100.00;102056.19;5018420;28;20480;-46
2023/06/25 02:46:19;;;;;;;26.13;23.43;;;;;;;16.35;100.00;102062.19;5018629;28;20440;-42
2023/06/25 02:48:47;;;;;;;27.70;24.83;;;;;;;16.31;100.00;102061.78;5017781;28;20461;-43
2023/06/25 02:51:15;;;;;;;25.77;23.17;;;;;;;16.26;100.00;102063.41;5018395;28;20855;-45
2023/06/25 02:53:43;;;;;;;27.07;24.37;;;;;;;16.20;100.00;102065.06;5018645;28;20456;-45
2023/06/25 02:56:11;;;;;;;27.43;24.53;;;;;;;16.17;100.00;102059.25;5010070;28;20437;-43
2023/06/25 02:58:39;;;;;;;25.03;22.47;;;;;;;16.15;100.00;102062.16;5017881;28;20466;-42
2023/06/25 03:01:07;;;;;;;28.23;25.13;;;;;;;16.16;100.00;102058.41;5018810;28;20433;-43
2023/06/25 03:03:34;;;;;;;27.93;24.90;;;;;;;16.17;100.00;102054.69;5017561;28;21071;-43
2023/06/25 03:06:04;;;;;;;27.37;24.47;;;;;;;16.19;100.00;102051.81;5018667;28;20437;-43
2023/06/25 03:08:33;;;;;;;33.10;27.80;;;;;;;16.21;100.00;102055.97;5017943;28;20449;-43
2023/06/25 03:11:01;;;;;;;31.77;27.87;;;;;;;16.25;100.00;102056.34;5017171;28;20480;-43
2023/06/25 03:13:29;;;;;;;25.73;23.10;;;;;;;16.29;100.00;102053.06;5017452;28;20440;-44
2023/06/25 03:15:56;;;;;;;25.23;22.73;;;;;;;16.36;100.00;102047.72;5016657;28;20433;-44
2023/06/25 03:18:24;;;;;;;31.23;25.90;;;;;;;16.42;100.00;102041.53;5017041;28;20461;-46
2023/06/25 03:20:52;;;;;;;25.93;23.13;;;;;;;16.50;100.00;102044.84;5016726;28;20453;-43
2023/06/25 03:23:19;;;;;;;25.30;22.80;;;;;;;16.61;100.00;102042.63;5017429;28;20631;-43
2023/06/25 03:25:49;;;;;;;29.20;26.30;;;;;;;16.68;100.00;102038.91;5017752;28;20442;-43
2023/06/25 03:28:17;;;;;;;26.27;23.63;;;;;;;16.96;100.00;102044.13;5017718;28;20536;-45
2023/06/25 03:30:46;;;;;;;25.37;23.07;;;;;;;17.48;100.00;102040.53;5017704;28;20457;-43
2023/06/25 03:33:14;;;;;;;23.10;21.17;;;;;;;18.10;100.00;102043.47;5016553;28;20789;-44
2023/06/25 03:35:42;;;;;;;26.03;23.40;;;;;;;18.36;100.00;102034.44;5016915;28;20445;-43
2023/06/25 03:38:10;;;;;;;26.70;24.20;;;;;;;18.33;100.00;102029.47;5016374;28;20483;-43
2023/06/25 03:40:39;;;;;;;23.00;21.00;;;;;;;18.31;100.00;102031.53;5017581;28;20471;-45
2023/06/25 03:43:08;;;;;;;22.17;20.07;;;;;;;18.31;100.00;102033.44;5017483;28;20443;-47
2023/06/25 03:45:36;;;;;;;23.10;20.90;;;;;;;18.28;100.00;102023.06;5017170;28;20437;-43
2023/06/25 03:48:05;;;;;;;22.63;20.57;;;;;;;18.32;100.00;102032.38;5016011;28;20488;-43
2023/06/25 03:50:33;;;;;;;26.93;24.10;;;;;;;18.34;100.00;102024.91;5016832;28;20481;-45
2023/06/25 03:53:01;;;;;;;26.77;24.27;;;;;;;18.41;100.00;102031.06;5015527;28;20433;-40
2023/06/25 03:55:29;;;;;;;22.63;20.63;;;;;;;18.53;100.00;102029.38;5017367;28;20432;-45
2023/06/25 03:57:57;;;;;;;22.17;20.00;;;;;;;18.68;100.00;102028.00;5015906;28;20814;-45
2023/06/25 04:00:26;;;;;;;24.37;22.27;;;;;;;18.84;100.00;102033.94;5016800;28;20522;-43
2023/06/25 04:02:54;;;;;;;25.90;22.10;;;;;;;18.94;100.00;102026.13;5008726;28;20436;-43
2023/06/25 04:05:22;;;;;;;23.60;21.50;;;;;;;19.03;100.00;102028.34;5017329;28;20476;-43
2023/06/25 04:07:50;;;;;;;24.27;21.83;;;;;;;19.09;100.00;102027.47;5017134;28;20519;-44
2023/06/25 04:10:17;;;;;;;23.37;21.17;;;;;;;19.22;100.00;102034.66;5016930;28;20468;-43
2023/06/25 04:12:45;;;;;;;24.97;22.67;;;;;;;19.25;100.00;102020.69;5017425;28;20467;-44
2023/06/25 04:15:13;;;;;;;25.13;22.87;;;;;;;19.27;100.00;102013.16;5018150;28;20475;-43
2023/06/25 04:17:42;;;;;;;21.80;19.90;;;;;;;19.42;100.00;102018.25;5016302;28;20538;-43
2023/06/25 04:20:10;;;;;;;22.60;20.40;;;;;;;19.59;100.00;102027.44;5017349;28;20463;-44
2023/06/25 04:22:38;;;;;;;22.50;20.47;;;;;;;19.61;100.00;102015.34;5004429;28;20950;-46
2023/06/25 04:25:06;;;;;;;23.70;21.50;;;;;;;19.68;100.00;102007.16;5017608;28;20500;-43
2023/06/25 04:27:34;;;;;;;21.90;19.90;;;;;;;19.84;100.00;102010.06;5007201;28;20456;-43
2023/06/25 04:30:02;;;;;;;23.93;21.73;;;;;;;20.12;100.00;102009.50;5015807;28;20878;-45
2023/06/25 04:32:32;;;;;;;22.40;20.50;;;;;;;21.30;100.00;102012.25;5017309;28;20429;-44
2023/06/25 04:35:02;;;;;;;23.77;21.47;;;;;;;22.74;100.00;102017.38;5017104;28;20436;-46
2023/06/25 04:37:29;;;;;;;22.50;20.40;;;;;;;23.98;100.00;101996.88;5017401;28;20461;-46
2023/06/25 04:39:57;;;;;;;23.40;21.47;;;;;;;25.09;100.00;101991.66;5017475;28;20457;-41
2023/06/25 04:42:25;;;;;;;21.20;19.40;;;;;;;26.06;100.00;101991.84;5016117;28;20539;-43
2023/06/25 04:44:53;;;;;;;24.87;22.77;;;;;;;26.85;100.00;101992.25;5016705;28;20476;-42
2023/06/25 04:47:21;;;;;;;24.57;22.40;;;;;;;27.73;100.00;101986.31;5014299;28;20488;-44
2023/06/25 04:49:49;;;;;;;24.07;22.07;;;;;;;28.36;100.00;101982.69;5016805;28;20452;-42
2023/06/25 04:52:20;;;;;;;23.37;21.20;;;;;;;28.80;100.00;101976.31;5015762;28;20454;-42
2023/06/25 04:54:48;;;;;;;24.00;21.73;;;;;;;29.27;97.25;101984.63;5016855;28;20844;-43
2023/06/25 04:57:16;;;;;;;26.63;24.13;;;;;;;29.32;85.71;101992.84;5015662;28;20460;-42
2023/06/25 04:59:43;;;;;;;27.00;24.20;;;;;;;29.40;84.19;101989.44;5016788;28;21256;-44
2023/06/25 05:02:11;;;;;;;25.10;22.67;;;;;;;30.00;80.99;101998.88;5019782;28;20460;-47
2023/06/25 05:04:39;;;;;;;29.90;27.10;;;;;;;30.55;73.78;101994.50;5019018;28;20257;-47
2023/06/25 05:07:06;;;;;;;25.90;23.60;;;;;;;31.08;75.99;101999.66;5019584;28;20432;-42
2023/06/25 05:09:36;;;;;;;24.87;22.63;;;;;;;31.38;67.46;102010.09;5018739;28;20213;-42
2023/06/25 05:12:04;;;;;;;30.03;27.13;;;;;;;31.58;63.98;102000.63;5017780;28;20209;-44
2023/06/25 05:14:32;;;;;;;29.10;26.40;;;;;;;31.95;70.10;101999.56;5019190;28;20706;-47
2023/06/25 05:16:59;;;;;;;30.67;27.77;;;;;;;32.12;63.52;102006.09;5018671;28;20197;-42
2023/06/25 05:19:27;;;;;;;28.67;26.10;;;;;;;32.03;58.31;102001.63;5018954;28;20225;-47
2023/06/25 05:21:55;;;;;;;29.88;27.15;;;;;;;32.27;58.85;102002.97;5019285;28;20201;-42
2023/06/25 05:24:23;;;;;;;26.70;24.25;;;;;;;32.54;56.02;101995.72;5019497;28;20251;-42
2023/06/25 05:26:52;;;;;;;28.35;25.60;;;;;;;32.55;57.14;102005.63;5018285;28;20205;-42
2023/06/25 05:29:19;;;;;;;28.02;25.35;;;;;;;32.88;53.71;102003.44;5015805;28;20217;-48
2023/06/25 05:31:47;;;;;;;28.88;26.17;;;;;;;32.80;54.35;102003.06;5013298;28;20225;-42
2023/06/25 05:34:15;;;;;;;27.98;25.35;;;;;;;33.18;58.55;101995.19;5013640;28;20193;-43
2023/06/25 05:36:43;;;;;;;29.02;26.23;;;;;;;33.36;57.13;102002.38;5013435;28;20214;-42
2023/06/25 05:39:10;;;;;;;26.13;23.92;;;;;;;33.62;53.74;101997.00;5013032;28;20695;-44
2023/06/25 05:41:39;;;;;;;30.45;27.38;;;;;;;33.24;53.72;102001.38;5013219;28;20206;-48
2023/06/25 05:44:08;;;;;;;23.83;21.58;;;;;;;33.42;52.35;102003.88;5013336;28;20221;-43
2023/06/25 05:46:36;;;;;;;22.08;20.27;;;;;;;33.48;51.85;101998.22;5013566;28;20616;-43
2023/06/25 05:49:04;;;;;;;28.02;25.33;;;;;;;32.90;53.18;102002.00;5012629;28;20313;-45
2023/06/25 05:51:32;;;;;;;25.17;22.80;;;;;;;32.96;54.04;101992.44;5013327;28;20267;-42
2023/06/25 05:54:00;;;;;;;27.65;24.88;;;;;;;32.58;54.24;102002.28;5013501;28;20233;-42
2023/06/25 05:56:27;;;;;;;23.98;21.67;;;;;;;33.30;54.30;102000.13;5013348;28;20685;-45
2023/06/25 05:58:55;;;;;;;22.95;20.73;;;;;;;33.37;51.09;101997.69;5012654;28;20244;-42
2023/06/25 06:01:25;;;;;;;25.20;22.73;;;;;;;33.70;50.77;102004.47;5012613;28;20225;-45
2023/06/25 06:03:53;;;;;;;26.83;24.40;;;;;;;33.72;48.57;102006.94;5013382;28;20198;-45
2023/06/25 06:06:23;;;;;;;19.98;18.30;;;;;;;33.70;52.38;102003.66;5012844;28;20210;-43
2023/06/25 06:08:51;;;;;;;26.13;23.73;;;;;;;33.98;48.35;101996.72;5012349;28;20225;-47
2023/06/25 06:11:19;;;;;;;21.42;19.35;;;;;;;34.31;51.34;101997.09;5012111;28;20201;-43
2023/06/25 06:13:46;;;;;;;23.75;21.65;;;;;;;34.30;47.44;101998.22;5012468;28;20615;-44
2023/06/25 06:16:14;;;;;;;22.80;20.90;;;;;;;34.33;48.99;102001.16;5011998;28;20714;-42
2023/06/25 06:18:43;;;;;;;20.80;19.17;;;;;;;34.22;47.29;101997.09;5008882;28;21448;-45
2023/06/25 06:21:11;;;;;;;25.67;23.38;;;;;;;34.21;46.86;102001.00;5006931;28;20185;-42
2023/06/25 06:23:39;;;;;;;22.83;20.92;;;;;;;34.20;47.17;101998.56;5012542;28;20190;-43
2023/06/25 06:26:07;;;;;;;20.13;18.35;;;;;;;34.51;48.92;101995.59;5012699;28;20275;-43
2023/06/25 06:28:34;;;;;;;17.90;16.40;;;;;;;34.44;45.63;101994.13;5012350;28;20226;-45
2023/06/25 06:31:02;;;;;;;24.38;22.08;;;;;;;34.19;46.94;101985.84;5012514;28;20288;-45
2023/06/25 06:33:31;;;;;;;21.48;19.60;;;;;;;34.18;47.72;101985.03;5012329;28;20194;-43
2023/06/25 06:36:02;;;;;;;20.85;19.20;;;;;;;34.16;45.58;101980.97;5012869;28;20193;-48
2023/06/25 06:38:30;;;;;;;21.73;19.73;;;;;;;33.99;45.98;101976.19;5011790;28;20233;-44
2023/06/25 06:40:58;;;;;;;17.30;15.90;;;;;;;33.74;47.52;101993.59;5011784;28;20620;-44
2023/06/25 06:43:25;;;;;;;17.98;16.52;;;;;;;33.60;45.93;101982.66;5012359;28;20599;-49
2023/06/25 06:45:53;;;;;;;19.58;17.88;;;;;;;33.57;48.09;101976.94;5012669;28;20441;-44
2023/06/25 06:48:21;;;;;;;15.35;14.00;;;;;;;33.76;44.87;101972.75;5012214;28;20641;-45
2023/06/25 06:50:49;;;;;;;15.85;14.55;;;;;;;33.79;43.78;101976.84;5012386;28;20225;-44
2023/06/25 06:53:18;;;;;;;16.30;14.85;;;;;;;33.68;44.05;101981.06;5011265;28;20220;-46
2023/06/25 06:55:46;;;;;;;15.32;14.23;;;;;;;33.89;45.05;101982.06;5012415;28;20198;-45
2023/06/25 06:58:14;;;;;;;14.07;12.88;;;;;;;33.60;44.88;101976.31;5011721;28;20729;-45
2023/06/25 07:00:42;;;;;;;15.90;13.43;;;;;;;33.77;42.79;101965.28;5012001;28;20221;-46
2023/06/25 07:03:10;;;;;;;13.27;12.25;;;;;;;33.47;43.81;101971.69;5012051;28;20194;-45
2023/06/25 07:05:37;;;;;;;13.48;12.38;;;;;;;33.57;43.93;101965.88;5012030;28;20705;-47
2023/06/25 07:08:06;;;;;;;12.30;11.30;;;;;;;33.34;44.21;101963.19;5011310;28;20225;-43
2023/06/25 07:10:35;;;;;;;13.55;12.55;;;;;;;33.50;44.40;101959.97;5012170;28;20287;-46
2023/06/25 07:13:03;;;;;;;11.98;10.98;;;;;;;33.64;41.29;101958.75;5011850;28;20276;-45
2023/06/25 07:15:31;;;;;;;12.95;11.98;;;;;;;33.70;42.41;101954.69;5012108;28;20288;-45
2023/06/25 07:17:58;;;;;;;10.70;9.60;;;;;;;33.35;44.12;101966.78;5011402;28;20305;-44
2023/06/25 07:20:26;;;;;;;11.52;10.63;;;;;;;33.25;42.75;101959.59;5011435;28;20214;-47
2023/06/25 07:22:54;;;;;;;11.02;10.23;;;;;;;32.97;43.19;101962.84;5010365;28;20255;-45
2023/06/25 07:25:22;;;;;;;10.25;9.45;;;;;;;32.97;42.74;101962.84;5011963;28;20247;-44
2023/06/25 07:27:51;;;;;;;11.40;10.52;;;;;;;32.60;43.99;101964.09;5011560;28;20232;-47
2023/06/25 07:30:18;;;;;;;12.25;11.00;;;;;;;32.63;43.78;101966.22;5011492;28;20309;-46
2023/06/25 07:32:46;;;;;;;11.40;10.55;;;;;;;32.82;44.34;101959.38;5011217;28;20767;-43
2023/06/25 07:35:14;;;;;;;11.65;10.60;;;;;;;32.91;44.16;101956.66;5010972;28;20709;-45
2023/06/25 07:37:42;;;;;;;9.95;9.20;;;;;;;33.08;44.20;101953.19;5010501;28;20244;-47
2023/06/25 07:40:10;;;;;;;10.98;10.20;;;;;;;33.00;43.54;101949.22;5011208;28;20295;-47
2023/06/25 07:42:38;;;;;;;10.32;9.63;;;;;;;32.63;42.79;101944.13;5011418;28;20610;-43
2023/06/25 07:45:09;;;;;;;10.82;10.13;;;;;;;32.61;43.93;101943.66;5009637;28;20198;-43
2023/06/25 07:47:36;;;;;;;10.40;9.55;;;;;;;32.62;43.72;101946.06;5010095;28;20297;-46
2023/06/25 07:50:05;;;;;;;10.45;9.65;;;;;;;32.09;45.61;101943.25;4980354;28;20221;-42
2023/06/25 07:52:33;;;;;;;11.00;9.95;;;;;;;31.86;44.95;101944.31;5006972;28;20189;-44
2023/06/25 07:55:02;;;;;;;10.82;9.88;;;;;;;31.92;44.88;101953.28;4984285;28;20291;-45
2023/06/25 07:57:29;;;;;;;10.57;9.77;;;;;;;31.80;46.15;101951.06;5009627;28;20221;-44
2023/06/25 07:59:57;;;;;;;10.35;9.55;;;;;;;32.04;45.47;101953.59;5009424;28;20225;-44
2023/06/25 08:02:26;;;;;;;9.82;9.13;;;;;;;31.73;45.35;101943.22;5009490;28;20197;-42
2023/06/25 08:04:56;;;;;;;9.10;8.30;;;;;;;31.83;46.21;101942.16;5010231;28;20675;-42
2023/06/25 08:07:24;;;;;;;9.55;8.95;;;;;;;31.66;45.80;101942.81;4947146;28;20269;-44
2023/06/25 08:09:52;;;;;;;10.27;9.32;;;;;;;31.50;46.45;101937.94;5010551;28;20300;-43
2023/06/25 08:12:26;;;;;;;9.38;8.70;;;;;;;30.80;47.29;101945.59;5010283;28;20200;-45
2023/06/25 08:14:53;;;;;;;9.27;8.57;;;;;;;30.33;48.99;101936.47;5010869;28;20236;-43
2023/06/25 08:17:21;;;;;;;9.97;9.13;;;;;;;30.20;49.85;101928.97;5010119;28;23199;-45
2023/06/25 08:19:50;;;;;;;9.73;8.90;;;;;;;29.97;50.65;101936.22;5010684;28;20217;-48
2023/06/25 08:22:18;;;;;;;8.00;7.50;;;;;;;29.80;49.93;101927.63;5009982;28;20194;-46
2023/06/25 08:24:46;;;;;;;10.27;9.37;;;;;;;29.85;49.59;101935.00;5011008;28;20259;-47
2023/06/25 08:27:14;;;;;;;9.43;8.73;;;;;;;29.42;50.67;101929.50;5009238;28;20479;-44
2023/06/25 08:29:42;;;;;;;9.50;8.83;;;;;;;29.56;50.55;101944.19;5009213;28;20305;-47
2023/06/25 08:32:09;;;;;;;10.13;9.30;;;;;;;29.01;54.03;101937.38;5009132;28;20512;-47
2023/06/25 08:34:38;;;;;;;9.37;8.67;;;;;;;28.61;56.08;101937.75;5012040;28;20439;-43
2023/06/25 08:37:07;;;;;;;10.97;10.17;;;;;;;28.43;55.85;101938.47;5013058;28;20981;-43
2023/06/25 08:39:35;;;;;;;10.43;9.30;;;;;;;28.67;56.21;101935.81;5014010;28;20448;-45
2023/06/25 08:42:03;;;;;;;9.97;9.27;;;;;;;28.89;54.47;101942.44;5012921;28;20440;-43
2023/06/25 08:44:30;;;;;;;10.30;9.50;;;;;;;28.93;52.99;101934.44;5014489;28;20440;-45
2023/06/25 08:46:59;;;;;;;9.10;8.40;;;;;;;28.96;53.74;101934.69;5014249;28;20911;-45
2023/06/25 08:49:30;;;;;;;7.80;7.10;;;;;;;28.91;53.74;101923.75;5012319;28;20853;-47
2023/06/25 08:52:01;;;;;;;8.23;7.53;;;;;;;29.01;54.44;101928.31;5011842;28;20436;-50
2023/06/25 08:54:30;;;;;;;8.10;7.60;;;;;;;28.73;53.85;101924.50;5012423;28;20515;-45
2023/06/25 08:57:00;;;;;;;8.37;7.67;;;;;;;28.54;54.63;101926.28;5013811;28;20507;-45
2023/06/25 08:59:28;;;;;;;8.07;7.57;;;;;;;28.36;56.00;101916.84;5012561;28;20440;-44
2023/06/25 09:01:55;;;;;;;7.40;6.90;;;;;;;28.27;56.55;101917.72;5012588;28;20524;-48
2023/06/25 09:04:23;;;;;;;6.07;5.67;;;;;;;28.37;55.07;101913.00;5013383;28;20499;-43
2023/06/25 09:06:52;;;;;;;6.43;6.10;;;;;;;28.40;55.13;101908.84;5013261;28;20994;-45
2023/06/25 09:09:32;;;;;;;6.50;6.00;;;;;;;28.47;55.53;101910.16;5012623;28;20996;-45
2023/06/25 09:12:00;;;;;;;8.37;6.20;;;;;;;28.64;53.89;101903.41;5013403;28;20432;-44
2023/06/25 09:14:30;;;;;;;6.20;5.80;;;;;;;28.60;53.72;101899.59;5013444;28;20503;-46
2023/06/25 09:16:58;;;;;;;6.47;6.00;;;;;;;28.85;52.71;101907.63;5016548;28;20440;-45
2023/06/25 09:19:26;;;;;;;6.20;5.70;;;;;;;28.63;54.06;101899.03;5016950;28;20464;-49
2023/06/25 09:21:53;;;;;;;5.60;5.30;;;;;;;28.61;54.26;101902.06;5017393;28;20473;-44
2023/06/25 09:24:22;;;;;;;5.10;4.80;;;;;;;29.06;53.67;101906.31;5017848;28;20448;-44
2023/06/25 09:26:52;;;;;;;5.93;5.37;;;;;;;29.33;54.06;101901.03;5018201;28;20558;-47
2023/06/25 09:29:22;;;;;;;4.80;4.50;;;;;;;29.67;50.92;101903.63;5016669;28;20530;-45
2023/06/25 09:31:50;;;;;;;4.47;4.27;;;;;;;29.93;49.58;101904.06;5018223;28;20997;-49
2023/06/25 09:34:19;;;;;;;5.10;4.90;;;;;;;29.57;51.28;101904.56;5017783;28;20486;-47
2023/06/25 09:36:47;;;;;;;4.60;4.40;;;;;;;29.51;49.45;101907.69;5018100;28;20429;-45
2023/06/25 09:39:15;;;;;;;5.20;4.90;;;;;;;29.44;50.67;101899.00;5018396;28;20468;-47
2023/06/25 09:41:43;;;;;;;4.63;4.40;;;;;;;29.46;52.07;101905.81;5017397;28;20862;-46
2023/06/25 09:44:14;;;;;;;4.57;4.27;;;;;;;29.51;50.91;101904.94;5017890;28;20431;-43
2023/06/25 09:46:42;;;;;;;4.33;3.97;;;;;;;29.54;52.30;101902.41;5015734;28;20534;-47
2023/06/25 09:49:09;;;;;;;4.00;3.73;;;;;;;29.46;51.55;101903.06;5016954;28;20527;-48
2023/06/25 09:51:46;;;;;;;4.70;4.50;;;;;;;29.84;51.41;101895.69;5017627;28;20463;-45
2023/06/25 09:54:19;;;;;;;4.50;4.30;;;;;;;30.34;50.93;101898.75;5017358;28;20440;-43
2023/06/25 09:56:49;;;;;;;4.50;4.30;;;;;;;30.58;48.55;101889.28;5016342;28;20491;-49
2023/06/25 09:59:18;;;;;;;4.40;4.20;;;;;;;30.78;48.25;101896.34;5016401;28;20472;-48
2023/06/25 10:01:48;;;;;;;3.90;3.70;;;;;;;31.05;48.01;101890.88;5016203;28;20436;-44
2023/06/25 10:04:16;;;;;;;4.13;3.93;;;;;;;31.37;46.04;101883.59;5017406;28;20527;-45
2023/06/25 10:06:44;;;;;;;4.00;3.80;;;;;;;31.39;47.45;101890.44;5017465;28;20507;-44
2023/06/25 10:09:12;;;;;;;4.30;4.10;;;;;;;31.72;46.04;101882.84;5015085;28;20495;-46
2023/06/25 10:11:49;;;;;;;4.63;4.33;;;;;;;31.16;44.80;101881.28;5016777;28;20460;-47
2023/06/25 10:14:19;;;;;;;3.93;3.83;;;;;;;30.71;46.23;101877.47;5018095;28;20220;-48
2023/06/25 10:16:53;;;;;;;4.30;4.00;;;;;;;31.20;45.66;101868.53;5017411;28;20459;-43
2023/06/25 10:19:22;;;;;;;4.57;4.27;;;;;;;31.51;44.70;101870.66;5018289;28;20472;-42
2023/06/25 10:21:59;;;;;;;4.50;4.30;;;;;;;31.73;43.92;101862.41;5017721;28;20439;-50
2023/06/25 10:24:38;;;;;;;4.53;4.30;;;;;;;32.05;42.50;101858.66;5017524;28;20659;-43
2023/06/25 10:27:06;;;;;;;4.57;4.37;;;;;;;32.53;42.84;101859.56;5016888;28;20472;-48
2023/06/25 10:29:41;;;;;;;4.23;3.93;;;;;;;32.77;42.82;101842.66;5017465;28;20271;-46
2023/06/25 10:32:11;;;;;;;5.50;4.50;;;;;;;32.63;42.62;101850.22;5017373;28;20197;-43
2023/06/25 10:34:39;;;;;;;4.80;4.60;;;;;;;32.56;43.45;101849.88;5017194;28;20201;-45
2023/06/25 10:37:09;;;;;;;4.53;4.27;;;;;;;32.69;42.71;101841.50;5017723;28;20194;-45
2023/06/25 10:39:37;;;;;;;4.40;4.10;;;;;;;31.99;42.02;101844.09;5017412;28;20575;-43
2023/06/25 10:42:06;;;;;;;4.33;4.13;;;;;;;31.45;44.52;101833.25;5016636;28;20228;-45
2023/06/25 10:44:35;;;;;;;4.93;4.53;;;;;;;31.01;45.82;101837.50;5017138;28;20329;-46
2023/06/25 10:47:07;;;;;;;4.40;4.10;;;;;;;31.03;45.60;101842.72;5016575;28;20249;-43
2023/06/25 10:49:35;;;;;;;4.63;4.23;;;;;;;30.97;46.52;101839.25;5017340;28;20556;-47
2023/06/25 10:52:04;;;;;;;5.10;4.80;;;;;;;31.24;46.26;101833.69;5016126;28;20205;-44
2023/06/25 10:54:33;;;;;;;4.47;4.17;;;;;;;31.78;44.41;101834.69;5017272;28;20433;-42
2023/06/25 10:57:08;;;;;;;4.40;4.20;;;;;;;32.04;43.45;101827.47;5016117;28;20198;-44
2023/06/25 10:59:36;;;;;;;5.30;5.00;;;;;;;31.82;43.99;101830.19;5016181;28;20217;-46
2023/06/25 11:02:14;;;;;;;4.93;4.63;;;;;;;31.73;43.92;101826.56;5016225;28;20212;-45
2023/06/25 11:04:42;;;;;;;5.43;5.13;;;;;;;30.94;45.87;101830.78;5016594;28;20194;-45
2023/06/25 11:07:11;;;;;;;4.87;4.63;;;;;;;30.94;44.77;101822.53;5016131;28;20437;-43
2023/06/25 11:09:39;;;;;;;4.73;4.53;;;;;;;30.51;45.80;101830.22;5016783;28;20357;-43
2023/06/25 11:12:08;;;;;;;4.80;4.50;;;;;;;30.33;46.68;101826.38;5016903;28;20564;-46
2023/06/25 11:14:36;;;;;;;5.77;5.37;;;;;;;30.34;48.61;101835.47;5016891;28;20202;-46
2023/06/25 11:17:04;;;;;;;4.90;4.50;;;;;;;30.72;48.10;101828.72;5016283;28;20968;-45